sensor_id;sensor_type;location;lat;lon;timestamp;P1;durP1;ratioP1;P2;durP2;ratioP2
81487;SDS011;70897;52.464;13.428;2024-02-04T00:02:22;15.55;;;2.75;;
81487;SDS011;70897;52.464;13.428;2024-02-04T00:05:09;9.95;;;2.72;;
81487;SDS011;70897;52.464;13.428;2024-02-04T00:07:54;18.42;;;4.45;;
81487;SDS011;70897;52.464;13.428;2024-02-04T00:10:39;17.45;;;2.95;;
81487;SDS011;70897;52.464;13.428;2024-02-04T00:13:25;13.88;;;2.33;;
81487;SDS011;70897;52.464;13.428;2024-02-04T00:16:10;14.70;;;2.60;;
81487;SDS011;70897;52.464;13.428;2024-02-04T00:18:55;12.23;;;2.40;;
81487;SDS011;70897;52.464;13.428;2024-02-04T00:21:40;14.32;;;3.00;;
81487;SDS011;70897;52.464;13.428;2024-02-04T00:24:25;15.10;;;3.13;;
81487;SDS011;70897;52.464;13.428;2024-02-04T00:27:10;10.25;;;2.67;;
81487;SDS011;70897;52.464;13.428;2024-02-04T00:29:56;9.52;;;2.13;;
81487;SDS011;70897;52.464;13.428;2024-02-04T00:32:41;17.13;;;2.67;;
81487;SDS011;70897;52.464;13.428;2024-02-04T00:35:26;14.43;;;2.60;;
81487;SDS011;70897;52.464;13.428;2024-02-04T00:38:11;11.73;;;2.17;;
81487;SDS011;70897;52.464;13.428;2024-02-04T00:40:56;11.35;;;2.35;;
81487;SDS011;70897;52.464;13.428;2024-02-04T00:43:41;15.27;;;2.50;;
81487;SDS011;70897;52.464;13.428;2024-02-04T00:46:26;11.18;;;2.33;;
81487;SDS011;70897;52.464;13.428;2024-02-04T00:49:11;17.63;;;2.75;;
81487;SDS011;70897;52.464;13.428;2024-02-04T00:51:57;15.30;;;2.35;;
81487;SDS011;70897;52.464;13.428;2024-02-04T00:54:42;13.02;;;2.95;;
81487;SDS011;70897;52.464;13.428;2024-02-04T00:57:27;18.70;;;2.88;;
81487;SDS011;70897;52.464;13.428;2024-02-04T01:00:12;16.90;;;2.67;;
81487;SDS011;70897;52.464;13.428;2024-02-04T01:02:58;17.50;;;3.00;;
81487;SDS011;70897;52.464;13.428;2024-02-04T01:05:43;17.88;;;2.80;;
81487;SDS011;70897;52.464;13.428;2024-02-04T01:08:28;13.40;;;2.53;;
81487;SDS011;70897;52.464;13.428;2024-02-04T01:11:13;16.90;;;2.95;;
81487;SDS011;70897;52.464;13.428;2024-02-04T01:13:58;15.68;;;3.10;;
81487;SDS011;70897;52.464;13.428;2024-02-04T01:16:43;18.83;;;3.08;;
81487;SDS011;70897;52.464;13.428;2024-02-04T01:19:28;16.10;;;2.90;;
81487;SDS011;70897;52.464;13.428;2024-02-04T01:22:14;18.92;;;2.70;;
81487;SDS011;70897;52.464;13.428;2024-02-04T01:24:59;13.82;;;2.78;;
81487;SDS011;70897;52.464;13.428;2024-02-04T01:27:44;17.02;;;2.95;;
81487;SDS011;70897;52.464;13.428;2024-02-04T01:30:29;15.73;;;2.70;;
81487;SDS011;70897;52.464;13.428;2024-02-04T01:33:15;16.27;;;2.80;;
81487;SDS011;70897;52.464;13.428;2024-02-04T01:36:01;13.45;;;2.58;;
81487;SDS011;70897;52.464;13.428;2024-02-04T01:38:46;18.27;;;3.20;;
81487;SDS011;70897;52.464;13.428;2024-02-04T01:41:31;14.10;;;2.70;;
81487;SDS011;70897;52.464;13.428;2024-02-04T01:44:16;12.73;;;2.88;;
81487;SDS011;70897;52.464;13.428;2024-02-04T01:47:03;14.18;;;2.78;;
81487;SDS011;70897;52.464;13.428;2024-02-04T01:49:48;13.45;;;3.20;;
81487;SDS011;70897;52.464;13.428;2024-02-04T01:52:35;11.95;;;2.55;;
81487;SDS011;70897;52.464;13.428;2024-02-04T01:55:22;12.32;;;2.60;;
81487;SDS011;70897;52.464;13.428;2024-02-04T01:58:07;13.43;;;2.97;;
81487;SDS011;70897;52.464;13.428;2024-02-04T02:00:53;10.57;;;2.60;;
81487;SDS011;70897;52.464;13.428;2024-02-04T02:03:38;15.27;;;2.90;;
81487;SDS011;70897;52.464;13.428;2024-02-04T02:06:24;15.07;;;2.83;;
81487;SDS011;70897;52.464;13.428;2024-02-04T02:09:09;15.82;;;3.15;;
81487;SDS011;70897;52.464;13.428;2024-02-04T02:12:03;19.67;;;3.00;;
81487;SDS011;70897;52.464;13.428;2024-02-04T02:15:02;13.90;;;2.42;;
81487;SDS011;70897;52.464;13.428;2024-02-04T02:17:58;15.38;;;2.65;;
81487;SDS011;70897;52.464;13.428;2024-02-04T02:26:52;20.08;;;3.55;;
81487;SDS011;70897;52.464;13.428;2024-02-04T02:29:38;14.75;;;2.85;;
81487;SDS011;70897;52.464;13.428;2024-02-04T02:32:24;14.10;;;2.75;;
81487;SDS011;70897;52.464;13.428;2024-02-04T02:35:10;17.73;;;3.22;;
81487;SDS011;70897;52.464;13.428;2024-02-04T02:41:06;14.75;;;2.80;;
81487;SDS011;70897;52.464;13.428;2024-02-04T02:43:52;16.65;;;2.70;;
81487;SDS011;70897;52.464;13.428;2024-02-04T02:46:41;15.65;;;2.92;;
81487;SDS011;70897;52.464;13.428;2024-02-04T02:49:26;19.27;;;3.38;;
81487;SDS011;70897;52.464;13.428;2024-02-04T02:52:12;19.65;;;3.22;;
81487;SDS011;70897;52.464;13.428;2024-02-04T02:54:57;21.42;;;2.83;;
81487;SDS011;70897;52.464;13.428;2024-02-04T02:57:42;16.05;;;2.90;;
81487;SDS011;70897;52.464;13.428;2024-02-04T03:00:27;13.07;;;2.85;;
81487;SDS011;70897;52.464;13.428;2024-02-04T03:03:13;21.90;;;3.10;;
81487;SDS011;70897;52.464;13.428;2024-02-04T03:05:58;18.75;;;2.92;;
81487;SDS011;70897;52.464;13.428;2024-02-04T03:08:44;16.20;;;3.28;;
81487;SDS011;70897;52.464;13.428;2024-02-04T03:11:29;13.57;;;3.40;;
81487;SDS011;70897;52.464;13.428;2024-02-04T03:14:15;13.18;;;3.83;;
81487;SDS011;70897;52.464;13.428;2024-02-04T03:17:02;13.70;;;3.65;;
81487;SDS011;70897;52.464;13.428;2024-02-04T03:19:47;10.77;;;3.13;;
81487;SDS011;70897;52.464;13.428;2024-02-04T03:22:33;13.10;;;3.63;;
81487;SDS011;70897;52.464;13.428;2024-02-04T03:25:18;13.55;;;3.40;;
81487;SDS011;70897;52.464;13.428;2024-02-04T03:28:03;9.82;;;3.10;;
81487;SDS011;70897;52.464;13.428;2024-02-04T03:30:49;7.15;;;2.88;;
81487;SDS011;70897;52.464;13.428;2024-02-04T03:33:34;14.70;;;3.70;;
81487;SDS011;70897;52.464;13.428;2024-02-04T03:36:20;15.50;;;3.42;;
81487;SDS011;70897;52.464;13.428;2024-02-04T03:39:11;13.77;;;3.55;;
81487;SDS011;70897;52.464;13.428;2024-02-04T03:41:56;9.38;;;3.25;;
81487;SDS011;70897;52.464;13.428;2024-02-04T03:44:41;13.02;;;3.97;;
81487;SDS011;70897;52.464;13.428;2024-02-04T03:47:26;10.90;;;2.97;;
81487;SDS011;70897;52.464;13.428;2024-02-04T03:50:11;10.82;;;3.20;;
81487;SDS011;70897;52.464;13.428;2024-02-04T03:52:56;15.38;;;3.40;;
81487;SDS011;70897;52.464;13.428;2024-02-04T03:55:43;13.38;;;3.20;;
81487;SDS011;70897;52.464;13.428;2024-02-04T03:58:29;11.95;;;3.50;;
81487;SDS011;70897;52.464;13.428;2024-02-04T04:01:14;15.23;;;3.53;;
81487;SDS011;70897;52.464;13.428;2024-02-04T04:03:59;10.90;;;3.10;;
81487;SDS011;70897;52.464;13.428;2024-02-04T04:06:45;10.80;;;3.17;;
81487;SDS011;70897;52.464;13.428;2024-02-04T04:09:31;18.80;;;3.15;;
81487;SDS011;70897;52.464;13.428;2024-02-04T04:12:16;11.15;;;3.00;;
81487;SDS011;70897;52.464;13.428;2024-02-04T04:15:01;13.90;;;3.22;;
81487;SDS011;70897;52.464;13.428;2024-02-04T04:17:46;15.65;;;3.25;;
81487;SDS011;70897;52.464;13.428;2024-02-04T04:20:31;10.07;;;2.92;;
81487;SDS011;70897;52.464;13.428;2024-02-04T04:23:16;11.48;;;3.00;;
81487;SDS011;70897;52.464;13.428;2024-02-04T04:26:02;8.38;;;3.05;;
81487;SDS011;70897;52.464;13.428;2024-02-04T04:28:47;13.30;;;3.17;;
81487;SDS011;70897;52.464;13.428;2024-02-04T04:31:32;14.70;;;3.08;;
81487;SDS011;70897;52.464;13.428;2024-02-04T04:34:17;10.73;;;3.10;;
81487;SDS011;70897;52.464;13.428;2024-02-04T04:37:04;10.50;;;2.60;;
81487;SDS011;70897;52.464;13.428;2024-02-04T04:39:49;11.55;;;3.13;;
81487;SDS011;70897;52.464;13.428;2024-02-04T04:42:34;13.45;;;3.17;;
81487;SDS011;70897;52.464;13.428;2024-02-04T04:45:19;10.52;;;2.50;;
81487;SDS011;70897;52.464;13.428;2024-02-04T04:48:06;13.65;;;3.13;;
81487;SDS011;70897;52.464;13.428;2024-02-04T04:50:55;12.77;;;3.03;;
81487;SDS011;70897;52.464;13.428;2024-02-04T04:53:40;6.72;;;2.55;;
81487;SDS011;70897;52.464;13.428;2024-02-04T04:56:25;10.05;;;2.35;;
81487;SDS011;70897;52.464;13.428;2024-02-04T04:59:10;14.63;;;2.90;;
81487;SDS011;70897;52.464;13.428;2024-02-04T05:01:55;10.27;;;2.60;;
81487;SDS011;70897;52.464;13.428;2024-02-04T05:04:43;10.55;;;2.47;;
81487;SDS011;70897;52.464;13.428;2024-02-04T05:07:29;13.90;;;2.90;;
81487;SDS011;70897;52.464;13.428;2024-02-04T05:10:14;9.45;;;2.33;;
81487;SDS011;70897;52.464;13.428;2024-02-04T05:13:00;9.55;;;2.50;;
81487;SDS011;70897;52.464;13.428;2024-02-04T05:15:45;10.40;;;2.90;;
81487;SDS011;70897;52.464;13.428;2024-02-04T05:18:30;9.02;;;3.00;;
81487;SDS011;70897;52.464;13.428;2024-02-04T05:21:16;11.00;;;2.38;;
81487;SDS011;70897;52.464;13.428;2024-02-04T05:24:01;12.18;;;2.65;;
81487;SDS011;70897;52.464;13.428;2024-02-04T05:26:46;12.52;;;2.80;;
81487;SDS011;70897;52.464;13.428;2024-02-04T05:29:32;14.23;;;2.72;;
81487;SDS011;70897;52.464;13.428;2024-02-04T05:32:17;9.82;;;2.45;;
81487;SDS011;70897;52.464;13.428;2024-02-04T05:35:02;12.98;;;3.10;;
81487;SDS011;70897;52.464;13.428;2024-02-04T05:37:48;12.82;;;2.70;;
81487;SDS011;70897;52.464;13.428;2024-02-04T05:40:33;10.60;;;2.80;;
81487;SDS011;70897;52.464;13.428;2024-02-04T05:43:18;9.80;;;2.70;;
81487;SDS011;70897;52.464;13.428;2024-02-04T05:46:03;11.65;;;2.35;;
81487;SDS011;70897;52.464;13.428;2024-02-04T05:48:48;9.80;;;2.72;;
81487;SDS011;70897;52.464;13.428;2024-02-04T05:51:40;9.05;;;2.60;;
81487;SDS011;70897;52.464;13.428;2024-02-04T05:54:26;12.88;;;2.97;;
81487;SDS011;70897;52.464;13.428;2024-02-04T05:57:11;11.63;;;2.88;;
81487;SDS011;70897;52.464;13.428;2024-02-04T05:59:56;12.48;;;2.70;;
81487;SDS011;70897;52.464;13.428;2024-02-04T06:02:43;11.32;;;2.97;;
81487;SDS011;70897;52.464;13.428;2024-02-04T06:05:29;11.63;;;2.80;;
81487;SDS011;70897;52.464;13.428;2024-02-04T06:08:14;11.85;;;3.17;;
81487;SDS011;70897;52.464;13.428;2024-02-04T06:10:59;9.07;;;2.80;;
81487;SDS011;70897;52.464;13.428;2024-02-04T06:13:44;13.45;;;3.13;;
81487;SDS011;70897;52.464;13.428;2024-02-04T06:16:30;12.63;;;2.80;;
81487;SDS011;70897;52.464;13.428;2024-02-04T06:19:15;8.63;;;2.95;;
81487;SDS011;70897;52.464;13.428;2024-02-04T06:22:00;11.30;;;2.97;;
81487;SDS011;70897;52.464;13.428;2024-02-04T06:24:45;11.00;;;3.08;;
81487;SDS011;70897;52.464;13.428;2024-02-04T06:27:31;8.98;;;2.95;;
81487;SDS011;70897;52.464;13.428;2024-02-04T06:30:16;11.40;;;3.28;;
81487;SDS011;70897;52.464;13.428;2024-02-04T06:33:01;8.60;;;3.13;;
81487;SDS011;70897;52.464;13.428;2024-02-04T06:35:48;9.98;;;3.63;;
81487;SDS011;70897;52.464;13.428;2024-02-04T06:38:33;16.63;;;4.05;;
81487;SDS011;70897;52.464;13.428;2024-02-04T06:41:18;15.25;;;4.20;;
81487;SDS011;70897;52.464;13.428;2024-02-04T06:44:03;9.13;;;4.03;;
81487;SDS011;70897;52.464;13.428;2024-02-04T06:46:49;16.05;;;5.22;;
81487;SDS011;70897;52.464;13.428;2024-02-04T06:49:34;17.65;;;5.00;;
81487;SDS011;70897;52.464;13.428;2024-02-04T06:52:19;13.45;;;4.85;;
81487;SDS011;70897;52.464;13.428;2024-02-04T06:55:04;12.55;;;4.45;;
81487;SDS011;70897;52.464;13.428;2024-02-04T06:57:50;13.82;;;4.68;;
81487;SDS011;70897;52.464;13.428;2024-02-04T07:00:35;14.38;;;4.95;;
81487;SDS011;70897;52.464;13.428;2024-02-04T07:03:20;13.00;;;5.53;;
81487;SDS011;70897;52.464;13.428;2024-02-04T07:06:05;12.07;;;4.72;;
81487;SDS011;70897;52.464;13.428;2024-02-04T07:08:52;16.25;;;4.65;;
81487;SDS011;70897;52.464;13.428;2024-02-04T07:11:37;12.27;;;4.75;;
81487;SDS011;70897;52.464;13.428;2024-02-04T07:14:23;15.05;;;4.75;;
81487;SDS011;70897;52.464;13.428;2024-02-04T07:17:08;12.50;;;4.55;;
81487;SDS011;70897;52.464;13.428;2024-02-04T07:19:53;14.07;;;4.80;;
81487;SDS011;70897;52.464;13.428;2024-02-04T07:22:38;12.82;;;4.30;;
81487;SDS011;70897;52.464;13.428;2024-02-04T07:25:23;16.10;;;4.70;;
81487;SDS011;70897;52.464;13.428;2024-02-04T07:28:08;14.35;;;4.63;;
81487;SDS011;70897;52.464;13.428;2024-02-04T07:30:53;14.73;;;4.65;;
81487;SDS011;70897;52.464;13.428;2024-02-04T07:33:39;12.23;;;4.68;;
81487;SDS011;70897;52.464;13.428;2024-02-04T07:36:24;10.80;;;4.55;;
81487;SDS011;70897;52.464;13.428;2024-02-04T07:39:09;12.00;;;4.00;;
81487;SDS011;70897;52.464;13.428;2024-02-04T07:41:55;11.20;;;4.30;;
81487;SDS011;70897;52.464;13.428;2024-02-04T07:44:41;14.82;;;4.43;;
81487;SDS011;70897;52.464;13.428;2024-02-04T07:47:26;10.68;;;4.20;;
81487;SDS011;70897;52.464;13.428;2024-02-04T07:50:12;15.93;;;4.93;;
81487;SDS011;70897;52.464;13.428;2024-02-04T07:52:57;14.38;;;4.30;;
81487;SDS011;70897;52.464;13.428;2024-02-04T07:55:42;13.68;;;4.63;;
81487;SDS011;70897;52.464;13.428;2024-02-04T07:58:27;13.25;;;4.70;;
81487;SDS011;70897;52.464;13.428;2024-02-04T08:01:12;17.20;;;4.95;;
81487;SDS011;70897;52.464;13.428;2024-02-04T08:03:57;9.00;;;4.28;;
81487;SDS011;70897;52.464;13.428;2024-02-04T08:06:42;16.20;;;4.50;;
81487;SDS011;70897;52.464;13.428;2024-02-04T08:09:27;14.32;;;4.60;;
81487;SDS011;70897;52.464;13.428;2024-02-04T08:12:12;11.93;;;4.40;;
81487;SDS011;70897;52.464;13.428;2024-02-04T08:14:58;11.98;;;4.00;;
81487;SDS011;70897;52.464;13.428;2024-02-04T08:17:43;13.25;;;4.10;;
81487;SDS011;70897;52.464;13.428;2024-02-04T08:20:28;13.40;;;4.13;;
81487;SDS011;70897;52.464;13.428;2024-02-04T08:23:13;14.63;;;3.95;;
81487;SDS011;70897;52.464;13.428;2024-02-04T08:25:59;10.93;;;3.75;;
81487;SDS011;70897;52.464;13.428;2024-02-04T08:28:44;12.40;;;3.80;;
81487;SDS011;70897;52.464;13.428;2024-02-04T08:31:30;13.82;;;3.75;;
81487;SDS011;70897;52.464;13.428;2024-02-04T08:34:16;11.38;;;3.83;;
81487;SDS011;70897;52.464;13.428;2024-02-04T08:37:02;11.82;;;3.38;;
81487;SDS011;70897;52.464;13.428;2024-02-04T08:39:47;13.63;;;3.28;;
81487;SDS011;70897;52.464;13.428;2024-02-04T08:42:32;11.88;;;3.05;;
81487;SDS011;70897;52.464;13.428;2024-02-04T08:45:17;13.98;;;3.20;;
81487;SDS011;70897;52.464;13.428;2024-02-04T08:48:02;14.27;;;3.20;;
81487;SDS011;70897;52.464;13.428;2024-02-04T08:50:48;9.85;;;3.20;;
81487;SDS011;70897;52.464;13.428;2024-02-04T08:53:33;9.85;;;2.80;;
81487;SDS011;70897;52.464;13.428;2024-02-04T08:56:18;10.25;;;2.70;;
81487;SDS011;70897;52.464;13.428;2024-02-04T08:59:03;12.57;;;3.13;;
81487;SDS011;70897;52.464;13.428;2024-02-04T09:01:50;11.68;;;3.00;;
81487;SDS011;70897;52.464;13.428;2024-02-04T09:04:35;13.65;;;3.25;;
81487;SDS011;70897;52.464;13.428;2024-02-04T09:07:24;10.38;;;2.90;;
81487;SDS011;70897;52.464;13.428;2024-02-04T09:10:09;9.48;;;2.80;;
81487;SDS011;70897;52.464;13.428;2024-02-04T09:12:54;11.55;;;3.15;;
81487;SDS011;70897;52.464;13.428;2024-02-04T09:15:39;10.35;;;2.83;;
81487;SDS011;70897;52.464;13.428;2024-02-04T09:18:24;8.20;;;2.50;;
81487;SDS011;70897;52.464;13.428;2024-02-04T09:21:09;9.35;;;2.97;;
81487;SDS011;70897;52.464;13.428;2024-02-04T09:23:54;9.55;;;2.92;;
81487;SDS011;70897;52.464;13.428;2024-02-04T09:26:49;10.38;;;2.70;;
81487;SDS011;70897;52.464;13.428;2024-02-04T09:29:34;8.88;;;2.83;;
81487;SDS011;70897;52.464;13.428;2024-02-04T09:32:19;9.43;;;2.47;;
81487;SDS011;70897;52.464;13.428;2024-02-04T09:35:04;13.23;;;2.28;;
81487;SDS011;70897;52.464;13.428;2024-02-04T09:37:49;10.15;;;2.42;;
81487;SDS011;70897;52.464;13.428;2024-02-04T09:40:34;10.70;;;2.40;;
81487;SDS011;70897;52.464;13.428;2024-02-04T09:43:20;9.27;;;2.35;;
81487;SDS011;70897;52.464;13.428;2024-02-04T09:46:05;8.98;;;2.38;;
81487;SDS011;70897;52.464;13.428;2024-02-04T09:48:50;9.52;;;2.10;;
81487;SDS011;70897;52.464;13.428;2024-02-04T09:51:37;10.13;;;2.60;;
81487;SDS011;70897;52.464;13.428;2024-02-04T09:54:24;7.95;;;1.95;;
81487;SDS011;70897;52.464;13.428;2024-02-04T09:57:09;9.70;;;2.30;;
81487;SDS011;70897;52.464;13.428;2024-02-04T09:59:55;10.07;;;2.22;;
81487;SDS011;70897;52.464;13.428;2024-02-04T10:02:41;6.78;;;1.40;;
81487;SDS011;70897;52.464;13.428;2024-02-04T10:05:26;14.50;;;2.47;;
81487;SDS011;70897;52.464;13.428;2024-02-04T10:08:11;9.20;;;1.88;;
81487;SDS011;70897;52.464;13.428;2024-02-04T10:10:57;6.78;;;1.88;;
81487;SDS011;70897;52.464;13.428;2024-02-04T10:13:47;7.95;;;1.90;;
81487;SDS011;70897;52.464;13.428;2024-02-04T10:16:35;6.20;;;1.75;;
81487;SDS011;70897;52.464;13.428;2024-02-04T10:19:23;6.85;;;1.80;;
81487;SDS011;70897;52.464;13.428;2024-02-04T10:22:09;7.05;;;1.75;;
81487;SDS011;70897;52.464;13.428;2024-02-04T10:25:04;9.82;;;1.90;;
81487;SDS011;70897;52.464;13.428;2024-02-04T10:27:51;11.65;;;2.03;;
81487;SDS011;70897;52.464;13.428;2024-02-04T10:30:38;9.23;;;2.42;;
81487;SDS011;70897;52.464;13.428;2024-02-04T10:33:24;7.78;;;2.20;;
81487;SDS011;70897;52.464;13.428;2024-02-04T10:36:09;5.70;;;1.70;;
81487;SDS011;70897;52.464;13.428;2024-02-04T10:38:55;5.90;;;1.67;;
81487;SDS011;70897;52.464;13.428;2024-02-04T10:41:42;5.22;;;1.63;;
81487;SDS011;70897;52.464;13.428;2024-02-04T10:44:35;7.63;;;2.17;;
81487;SDS011;70897;52.464;13.428;2024-02-04T10:47:22;9.50;;;1.90;;
81487;SDS011;70897;52.464;13.428;2024-02-04T10:50:08;6.88;;;1.70;;
81487;SDS011;70897;52.464;13.428;2024-02-04T10:52:55;7.03;;;1.73;;
81487;SDS011;70897;52.464;13.428;2024-02-04T10:55:46;8.30;;;1.58;;
81487;SDS011;70897;52.464;13.428;2024-02-04T10:58:33;8.70;;;1.95;;
81487;SDS011;70897;52.464;13.428;2024-02-04T11:01:20;4.22;;;1.35;;
81487;SDS011;70897;52.464;13.428;2024-02-04T11:04:08;12.15;;;2.15;;
81487;SDS011;70897;52.464;13.428;2024-02-04T11:06:58;6.00;;;1.60;;
81487;SDS011;70897;52.464;13.428;2024-02-04T11:09:45;6.88;;;1.60;;
81487;SDS011;70897;52.464;13.428;2024-02-04T11:12:33;7.45;;;2.20;;
81487;SDS011;70897;52.464;13.428;2024-02-04T11:15:21;6.80;;;1.85;;
81487;SDS011;70897;52.464;13.428;2024-02-04T11:27:06;6.60;;;1.67;;
81487;SDS011;70897;52.464;13.428;2024-02-04T11:29:52;7.03;;;1.88;;
81487;SDS011;70897;52.464;13.428;2024-02-04T11:32:38;9.32;;;1.90;;
81487;SDS011;70897;52.464;13.428;2024-02-04T11:35:24;9.02;;;1.70;;
81487;SDS011;70897;52.464;13.428;2024-02-04T11:38:10;5.90;;;1.98;;
81487;SDS011;70897;52.464;13.428;2024-02-04T11:40:58;8.90;;;2.47;;
81487;SDS011;70897;52.464;13.428;2024-02-04T11:43:45;11.50;;;4.20;;
81487;SDS011;70897;52.464;13.428;2024-02-04T11:46:30;6.53;;;2.35;;
81487;SDS011;70897;52.464;13.428;2024-02-04T11:49:19;8.02;;;1.90;;
81487;SDS011;70897;52.464;13.428;2024-02-04T11:52:08;9.20;;;1.98;;
81487;SDS011;70897;52.464;13.428;2024-02-04T11:55:03;10.10;;;2.33;;
81487;SDS011;70897;52.464;13.428;2024-02-04T11:57:51;7.03;;;1.80;;
81487;SDS011;70897;52.464;13.428;2024-02-04T12:00:41;6.28;;;1.83;;
81487;SDS011;70897;52.464;13.428;2024-02-04T12:03:33;6.55;;;1.80;;
81487;SDS011;70897;52.464;13.428;2024-02-04T12:06:18;10.13;;;1.77;;
81487;SDS011;70897;52.464;13.428;2024-02-04T12:09:05;10.77;;;2.28;;
81487;SDS011;70897;52.464;13.428;2024-02-04T12:11:51;7.70;;;1.92;;
81487;SDS011;70897;52.464;13.428;2024-02-04T12:14:38;7.18;;;2.05;;
81487;SDS011;70897;52.464;13.428;2024-02-04T12:17:24;6.43;;;1.80;;
81487;SDS011;70897;52.464;13.428;2024-02-04T12:20:10;10.35;;;1.80;;
81487;SDS011;70897;52.464;13.428;2024-02-04T12:22:55;8.57;;;1.70;;
81487;SDS011;70897;52.464;13.428;2024-02-04T12:25:40;6.60;;;2.08;;
81487;SDS011;70897;52.464;13.428;2024-02-04T12:28:25;9.40;;;1.90;;
81487;SDS011;70897;52.464;13.428;2024-02-04T12:31:17;11.65;;;2.08;;
81487;SDS011;70897;52.464;13.428;2024-02-04T12:34:03;9.50;;;1.92;;
81487;SDS011;70897;52.464;13.428;2024-02-04T12:36:56;12.18;;;2.50;;
81487;SDS011;70897;52.464;13.428;2024-02-04T12:39:44;9.55;;;1.98;;
81487;SDS011;70897;52.464;13.428;2024-02-04T12:42:29;9.55;;;2.10;;
81487;SDS011;70897;52.464;13.428;2024-02-04T12:45:14;10.65;;;2.08;;
81487;SDS011;70897;52.464;13.428;2024-02-04T12:47:59;7.03;;;2.05;;
81487;SDS011;70897;52.464;13.428;2024-02-04T12:50:44;15.18;;;3.47;;
81487;SDS011;70897;52.464;13.428;2024-02-04T12:53:29;9.73;;;2.15;;
81487;SDS011;70897;52.464;13.428;2024-02-04T12:56:14;6.72;;;2.05;;
81487;SDS011;70897;52.464;13.428;2024-02-04T12:58:59;5.65;;;1.58;;
81487;SDS011;70897;52.464;13.428;2024-02-04T13:01:44;6.65;;;1.50;;
81487;SDS011;70897;52.464;13.428;2024-02-04T13:07:21;9.68;;;2.38;;
81487;SDS011;70897;52.464;13.428;2024-02-04T13:10:06;5.18;;;1.50;;
81487;SDS011;70897;52.464;13.428;2024-02-04T13:13:01;10.98;;;1.95;;
81487;SDS011;70897;52.464;13.428;2024-02-04T13:15:46;6.45;;;2.03;;
81487;SDS011;70897;52.464;13.428;2024-02-04T13:18:31;7.35;;;1.95;;
81487;SDS011;70897;52.464;13.428;2024-02-04T13:21:16;6.70;;;1.52;;
81487;SDS011;70897;52.464;13.428;2024-02-04T13:24:04;8.65;;;1.83;;
81487;SDS011;70897;52.464;13.428;2024-02-04T13:26:49;6.38;;;1.45;;
81487;SDS011;70897;52.464;13.428;2024-02-04T13:29:35;9.40;;;1.88;;
81487;SDS011;70897;52.464;13.428;2024-02-04T13:32:20;11.63;;;2.58;;
81487;SDS011;70897;52.464;13.428;2024-02-04T13:35:05;9.80;;;2.00;;
81487;SDS011;70897;52.464;13.428;2024-02-04T13:37:53;10.30;;;2.03;;
81487;SDS011;70897;52.464;13.428;2024-02-04T13:40:39;8.20;;;2.78;;
81487;SDS011;70897;52.464;13.428;2024-02-04T13:43:25;12.40;;;2.80;;
81487;SDS011;70897;52.464;13.428;2024-02-04T13:46:10;11.65;;;3.28;;
81487;SDS011;70897;52.464;13.428;2024-02-04T13:48:55;12.02;;;2.67;;
81487;SDS011;70897;52.464;13.428;2024-02-04T13:51:41;12.85;;;3.17;;
81487;SDS011;70897;52.464;13.428;2024-02-04T13:54:26;8.65;;;2.38;;
81487;SDS011;70897;52.464;13.428;2024-02-04T13:57:11;7.40;;;1.95;;
81487;SDS011;70897;52.464;13.428;2024-02-04T13:59:56;9.85;;;2.40;;
81487;SDS011;70897;52.464;13.428;2024-02-04T14:02:41;9.48;;;2.15;;
81487;SDS011;70897;52.464;13.428;2024-02-04T14:05:26;10.82;;;2.45;;
81487;SDS011;70897;52.464;13.428;2024-02-04T14:08:11;11.18;;;2.40;;
81487;SDS011;70897;52.464;13.428;2024-02-04T14:10:56;6.22;;;1.70;;
81487;SDS011;70897;52.464;13.428;2024-02-04T14:13:41;9.98;;;2.80;;
81487;SDS011;70897;52.464;13.428;2024-02-04T14:16:26;7.95;;;2.05;;
81487;SDS011;70897;52.464;13.428;2024-02-04T14:19:11;11.80;;;3.05;;
81487;SDS011;70897;52.464;13.428;2024-02-04T14:21:58;8.52;;;2.03;;
81487;SDS011;70897;52.464;13.428;2024-02-04T14:24:43;7.13;;;1.92;;
81487;SDS011;70897;52.464;13.428;2024-02-04T14:27:30;12.57;;;2.25;;
81487;SDS011;70897;52.464;13.428;2024-02-04T14:30:15;11.52;;;2.67;;
81487;SDS011;70897;52.464;13.428;2024-02-04T14:33:00;8.13;;;2.00;;
81487;SDS011;70897;52.464;13.428;2024-02-04T14:35:46;9.52;;;2.10;;
81487;SDS011;70897;52.464;13.428;2024-02-04T14:38:31;10.88;;;2.17;;
81487;SDS011;70897;52.464;13.428;2024-02-04T14:41:16;9.40;;;2.10;;
81487;SDS011;70897;52.464;13.428;2024-02-04T14:44:01;12.68;;;2.17;;
81487;SDS011;70897;52.464;13.428;2024-02-04T14:46:46;13.38;;;2.80;;
81487;SDS011;70897;52.464;13.428;2024-02-04T14:49:32;10.55;;;2.55;;
81487;SDS011;70897;52.464;13.428;2024-02-04T14:52:18;11.45;;;2.28;;
81487;SDS011;70897;52.464;13.428;2024-02-04T14:55:03;8.00;;;2.30;;
81487;SDS011;70897;52.464;13.428;2024-02-04T14:57:48;8.73;;;2.10;;
81487;SDS011;70897;52.464;13.428;2024-02-04T15:00:33;14.90;;;2.60;;
81487;SDS011;70897;52.464;13.428;2024-02-04T15:03:18;10.75;;;2.25;;
81487;SDS011;70897;52.464;13.428;2024-02-04T15:06:05;7.40;;;1.92;;
81487;SDS011;70897;52.464;13.428;2024-02-04T15:08:50;10.32;;;2.13;;
81487;SDS011;70897;52.464;13.428;2024-02-04T15:11:36;9.23;;;2.28;;
81487;SDS011;70897;52.464;13.428;2024-02-04T15:14:21;8.13;;;2.10;;
81487;SDS011;70897;52.464;13.428;2024-02-04T15:17:07;8.52;;;1.80;;
81487;SDS011;70897;52.464;13.428;2024-02-04T15:19:52;10.98;;;2.25;;
81487;SDS011;70897;52.464;13.428;2024-02-04T15:22:41;6.35;;;1.73;;
81487;SDS011;70897;52.464;13.428;2024-02-04T15:25:26;8.38;;;2.05;;
81487;SDS011;70897;52.464;13.428;2024-02-04T15:28:12;9.80;;;2.13;;
81487;SDS011;70897;52.464;13.428;2024-02-04T15:30:57;10.35;;;2.50;;
81487;SDS011;70897;52.464;13.428;2024-02-04T15:33:43;9.13;;;2.17;;
81487;SDS011;70897;52.464;13.428;2024-02-04T15:36:28;7.97;;;1.90;;
81487;SDS011;70897;52.464;13.428;2024-02-04T15:39:13;12.55;;;2.42;;
81487;SDS011;70897;52.464;13.428;2024-02-04T15:42:00;10.75;;;2.10;;
81487;SDS011;70897;52.464;13.428;2024-02-04T15:44:45;8.88;;;2.00;;
81487;SDS011;70897;52.464;13.428;2024-02-04T15:47:30;9.27;;;1.90;;
81487;SDS011;70897;52.464;13.428;2024-02-04T15:50:18;7.82;;;1.80;;
81487;SDS011;70897;52.464;13.428;2024-02-04T15:53:04;8.15;;;2.22;;
81487;SDS011;70897;52.464;13.428;2024-02-04T15:55:50;8.95;;;1.88;;
81487;SDS011;70897;52.464;13.428;2024-02-04T15:58:38;10.73;;;2.45;;
81487;SDS011;70897;52.464;13.428;2024-02-04T16:01:24;13.85;;;2.58;;
81487;SDS011;70897;52.464;13.428;2024-02-04T16:04:11;8.55;;;1.75;;
81487;SDS011;70897;52.464;13.428;2024-02-04T16:07:00;10.32;;;2.13;;
81487;SDS011;70897;52.464;13.428;2024-02-04T16:09:46;9.95;;;2.05;;
81487;SDS011;70897;52.464;13.428;2024-02-04T16:12:32;8.65;;;2.38;;
81487;SDS011;70897;52.464;13.428;2024-02-04T16:15:18;9.32;;;2.13;;
81487;SDS011;70897;52.464;13.428;2024-02-04T16:18:07;8.65;;;1.90;;
81487;SDS011;70897;52.464;13.428;2024-02-04T16:20:53;11.25;;;2.92;;
81487;SDS011;70897;52.464;13.428;2024-02-04T16:23:38;8.25;;;2.10;;
81487;SDS011;70897;52.464;13.428;2024-02-04T16:26:23;8.50;;;1.90;;
81487;SDS011;70897;52.464;13.428;2024-02-04T16:29:08;8.38;;;1.88;;
81487;SDS011;70897;52.464;13.428;2024-02-04T16:31:53;7.55;;;2.03;;
81487;SDS011;70897;52.464;13.428;2024-02-04T16:34:39;10.85;;;2.42;;
81487;SDS011;70897;52.464;13.428;2024-02-04T16:37:24;11.40;;;2.42;;